• Join FlightAware (Why Join?)
  • Login
  • US Flag 
07:14PM EST


 

Airport Tracker/Info


-or-


 

Live Flight TrackerFlight Track Log ✈ SWA407 ✈ 07-Apr-2013 ✈ KBNA - KTPA

Flight Track Log - Related Links

Times and Time Zones

All times are in EDT time to prevent confusion due to time zone crossing. See the SWA407 flight status page for this flight to view local times or setup timezone preferences in your user account.

Time Position Orientation Groundspeed Altitude Reporting Facility
EDT Latitude Longitude Course Direction KTS MPH feet Rate Location/Type
01:21PM 36.1000 -86.6833 180° South 144 166 1,300  Level Nashville TRACON
01:22PM 36.0833 -86.6833 180° South 151 174 2,600 2,520 Climbing Nashville TRACON
01:23PM 36.0333 -86.6667 165° South 240 276 5,100 2,820 Climbing Nashville TRACON
01:25PM 35.9075 -86.5922 154° Southeast 311 358 10,700 2,820 Climbing Memphis Center
01:26PM 35.8244 -86.5347 151° Southeast 326 375 13,200 3,120 Climbing Memphis Center
01:27PM 35.7306 -86.4700 151° Southeast 345 397 17,000 3,180 Climbing Memphis Center
01:29PM 35.5283 -86.4172 168° South 391 450 22,700 2,700 Climbing Atlanta Center
01:30PM 35.4161 -86.3936 170° South 405 466 25,100 2,220 Climbing Atlanta Center
01:31PM 35.3064 -86.3472 161° South 411 473 27,200 1,800 Climbing Atlanta Center
01:32PM 35.2053 -86.2908 155° Southeast 429 494 28,800 1,860 Climbing Atlanta Center
01:33PM 35.0814 -86.2242 156° South 434 499 30,900 1,980 Climbing Atlanta Center
01:34PM 34.9614 -86.1650 158° South 454 522 32,800 1,920 Climbing Atlanta Center
01:35PM 34.8433 -86.1167 161° South 454 522 34,800 1,620 Climbing Atlanta Center
01:36PM 34.7481 -86.0739 160° South 454 522 36,100 1,200 Climbing Atlanta Center
01:37PM 34.6214 -86.0203 161° South 449 517 37,200 1,260 Climbing Atlanta Center
01:38PM 34.4992 -85.9694 161° South 449 517 38,700 900 Climbing Atlanta Center
01:39PM 34.3831 -85.9192 160° South 449 517 39,000 120 Climbing Atlanta Center
01:40PM 34.2647 -85.8711 161° South 449 517 39,000  Level Atlanta Center
01:41PM 34.1486 -85.8208 160° South 444 511 39,000  Level Atlanta Center
01:42PM 34.0222 -85.7731 163° South 437 503 39,000  Level Atlanta Center
01:43PM 33.9081 -85.7258 161° South 437 503 39,000  Level Atlanta Center
01:44PM 33.7917 -85.6761 160° South 437 503 39,000  Level Atlanta Center
01:45PM 33.6775 -85.6289 161° South 443 510 39,000  Level Atlanta Center
01:46PM 33.5614 -85.5819 161° South 443 510 39,000  Level Atlanta Center
01:47PM 33.4428 -85.5325 161° South 443 510 39,000  Level Atlanta Center
01:48PM 33.3369 -85.4883 161° South 443 510 39,000  Level Atlanta Center
01:49PM 33.2228 -85.4419 161° South 443 510 39,000  Level Atlanta Center
01:50PM 33.1064 -85.3928 161° South 443 510 39,000  Level Atlanta Center
01:51PM 32.9775 -85.3314 158° South 448 516 39,000  Level Atlanta Center
01:52PM 32.8611 -85.2878 163° South 442 509 39,000  Level Atlanta Center
01:53PM 32.7406 -85.2367 160° South 447 514 39,000  Level Atlanta Center
01:54PM 32.6200 -85.1906 162° South 452 520 39,000  Level Atlanta Center
01:55PM 32.5036 -85.1422 161° South 452 520 39,000  Level Atlanta Center
01:56PM 32.3953 -85.0967 160° South 458 527 39,000  Level Atlanta Center
01:58PM 32.1344 -84.9950 162° South 484 557 39,000  Level Jacksonville Center
01:59PM 32.0206 -84.9483 161° South 462 532 39,000  Level Jacksonville Center
02:00PM 31.9000 -84.9017 162° South 456 525 39,000  Level Jacksonville Center
02:01PM 31.7714 -84.8525 162° South 449 517 39,000  Level Jacksonville Center
02:02PM 31.6531 -84.8061 162° South 444 511 39,000  Level Jacksonville Center
02:03PM 31.5328 -84.7572 161° South 444 511 39,000  Level Jacksonville Center
02:04PM 31.4144 -84.7111 162° South 450 518 39,000  Level Jacksonville Center
02:05PM 31.2939 -84.6650 162° South 455 524 39,000  Level Jacksonville Center
02:06PM 31.1750 -84.6603 178° South 436 502 39,000  Level Jacksonville Center
02:07PM 31.0558 -84.6800 188° South 436 502 39,000 -300 Level Jacksonville Center
02:09PM 30.8225 -84.6439 172° South 431 496 38,100 -660 Descending Jacksonville Center
02:10PM 30.7150 -84.5647 148° Southeast 432 497 37,100 -960 Descending Jacksonville Center
02:11PM 30.6031 -84.4831 148° Southeast 443 510 36,200 -960 Descending Jacksonville Center
02:12PM 30.4956 -84.3994 146° Southeast 460 529 35,200 -600 Descending Jacksonville Center
02:13PM 30.3881 -84.3181 147° Southeast 467 537 35,000 -120 Descending Jacksonville Center
02:14PM 30.2864 -84.2419 147° Southeast 462 532 35,000  Level Jacksonville Center
02:15PM 30.1933 -84.1736 148° Southeast 448 516 35,000  Level Jacksonville Center
02:16PM 30.0875 -84.0928 147° Southeast 443 510 35,000  Level Jacksonville Center
02:17PM 29.9839 -84.0147 147° Southeast 448 516 35,000  Level Jacksonville Center
02:18PM 29.8781 -83.9369 147° Southeast 448 516 35,000  Level Jacksonville Center
02:19PM 29.7722 -83.8642 149° Southeast 448 516 35,000  Level Jacksonville Center
02:20PM 29.6642 -83.7961 151° Southeast 448 516 35,000 -660 Level Jacksonville Center
02:21PM 29.5561 -83.7258 150° Southeast 448 516 33,700 -1,800 Descending Jacksonville Center
02:22PM 29.4481 -83.6558 151° Southeast 448 516 31,400 -2,340 Descending Jacksonville Center
02:23PM 29.3336 -83.5833 151° Southeast 438 504 29,100 -2,160 Descending Jacksonville Center
02:24PM 29.2358 -83.5208 151° Southeast 428 493 27,100 -1,380 Descending Jacksonville Center
02:25PM 29.1400 -83.4583 150° Southeast 407 468 26,400 -900 Descending Jacksonville Center
02:26PM 29.0422 -83.3961 151° Southeast 402 463 25,400 -1,380 Descending Jacksonville Center
02:27PM 28.9464 -83.3339 150° Southeast 395 455 23,700 -1,860 Descending Jacksonville Center
02:28PM 28.8547 -83.2789 152° Southeast 395 455 21,800 -1,860 Descending Jacksonville Center
02:29PM 28.7694 -83.2242 151° Southeast 384 442 20,000 -1,800 Descending Jacksonville Center
02:30PM 28.6839 -83.1694 151° Southeast 368 423 18,200 -1,740 Descending Jacksonville Center
02:31PM 28.5500 -83.0833 151° Southeast 338 389 15,400 -1,740 Descending Tampa TRACON
02:32PM 28.4667 -83.0333 152° Southeast 331 381 13,600 -1,620 Descending Tampa TRACON
02:34PM 28.3833 -82.9833 152° Southeast 313 360 12,200 -1,500 Descending Tampa TRACON
02:35PM 28.3000 -82.9333 152° Southeast 301 346 10,500 -1,500 Descending Tampa TRACON
02:36PM 28.2667 -82.8500 114° Southeast 293 337 9,100 -1,380 Descending Tampa TRACON
02:37PM 28.2833 -82.7667 77° East 284 327 7,800 -1,320 Descending Tampa TRACON
02:38PM 28.2833 -82.6833 90° East 271 312 6,600 -1,680 Descending Tampa TRACON
02:38PM 28.2333 -82.6167 130° Southeast 266 306 4,700 -1,860 Descending Tampa TRACON
02:39PM 28.1833 -82.5667 139° Southeast 262 302 3,100 -960 Descending Tampa TRACON
02:40PM 28.1333 -82.5167 139° Southeast 201 231 2,900 -600 Descending Tampa TRACON
02:41PM 28.0833 -82.5333 196° South 183 211 2,000 -900 Descending Tampa TRACON